North Pitcher, New York
Current Conditions -  °F | °C
As of 5:55 AM on Monday 29 Dec 2014 (Local Time) from KN03 Reporting Station
Clear Clear  
Wind Chill: 21°   Ceiling: Unl
Heat Index: 27°   Visibility: 10mi
Dew Point: 23°   Wind: 5mph
Humidity: 86%   Direction: 230°SW
Pressure: 30.14"   Gusts: NA
Location:  42.62°N, 75.82°W
Report Text: KN03 291055Z AUTO 23004KT 10SM CLR M03/M05 A3014 RMK AO2
Loading
Personal Weather Stations






























Interactive Weather Map New forecast layout! Learn more

10-Day Weather Forecast

Advertisements
Track Severe Weather on mobile